Time;durP1;ratioP1;P1;durP2;ratioP2;P2;SDS_P1;SDS_P2;PMS_P1;PMS_P2;Temp;Humidity;BMP_temperature;BMP_pressure;BME280_temperature;BME280_humidity;BME280_pressure;Samples;Min_cycle;Max_cycle;Signal;HPM_P1;HPM_P2
2022/01/02 00:00:31;;;;;;;13.35;5.72;;;11.60;99.90;;;;;;4956045;28;20489;-86
2022/01/02 00:03:06;;;;;;;14.95;6.05;;;11.30;99.90;;;;;;4982691;28;20050;-86
2022/01/02 00:05:37;;;;;;;15.45;5.60;;;10.60;99.90;;;;;;4976001;28;20041;-86
2022/01/02 00:08:08;;;;;;;11.43;5.40;;;10.20;99.90;;;;;;5007434;28;20128;-86
2022/01/02 00:10:36;;;;;;;11.07;5.63;;;11.00;99.90;;;;;;4991255;28;20054;-85
2022/01/02 00:13:04;;;;;;;11.98;5.38;;;11.60;99.90;;;;;;4975268;28;20053;-86
2022/01/02 00:15:30;;;;;;;11.52;5.47;;;10.60;99.90;;;;;;4991020;28;20116;-85
2022/01/02 00:18:07;;;;;;;12.13;5.70;;;11.40;99.90;;;;;;4990983;28;20058;-86
2022/01/02 00:20:32;;;;;;;14.30;5.63;;;12.10;99.90;;;;;;4991147;28;20064;-86
2022/01/02 00:23:05;;;;;;;17.23;5.85;;;10.90;99.90;;;;;;4974888;28;20046;-86
2022/01/02 00:25:39;;;;;;;13.05;6.75;;;11.50;99.90;;;;;;4974650;28;20484;-86
2022/01/02 00:28:06;;;;;;;16.38;6.78;;;10.90;99.90;;;;;;4974897;28;20089;-87
2022/01/02 00:30:33;;;;;;;14.30;5.50;;;10.60;99.90;;;;;;4974842;28;20096;-87
2022/01/02 00:33:01;;;;;;;13.82;7.13;;;10.90;99.90;;;;;;4974887;28;20558;-87
2022/01/02 00:35:27;;;;;;;12.82;6.28;;;10.50;99.90;;;;;;4974724;28;20048;-87
2022/01/02 00:37:53;;;;;;;14.75;6.32;;;10.80;99.90;;;;;;4974772;28;20500;-86
2022/01/02 00:40:19;;;;;;;16.48;6.80;;;10.70;99.90;;;;;;4974850;28;20049;-88
2022/01/02 00:42:47;;;;;;;15.93;7.70;;;11.70;99.90;;;;;;4991013;28;20092;-86
2022/01/02 00:45:15;;;;;;;17.35;7.90;;;10.90;99.90;;;;;;4990716;28;20065;-87
2022/01/02 00:47:51;;;;;;;16.92;7.38;;;11.60;99.90;;;;;;4974722;28;20053;-86
2022/01/02 00:50:24;;;;;;;17.63;7.70;;;10.90;99.90;;;;;;4974728;28;20056;-88
2022/01/02 00:52:50;;;;;;;22.52;8.57;;;12.00;99.90;;;;;;4974003;28;20072;-86
2022/01/02 00:55:21;;;;;;;20.08;9.05;;;10.90;99.90;;;;;;4975252;28;20050;-87
2022/01/02 00:58:02;;;;;;;18.85;8.65;;;11.10;99.90;;;;;;4975658;28;20060;-85
2022/01/02 01:00:29;;;;;;;18.38;8.00;;;12.00;99.90;;;;;;4991968;28;20046;-86
2022/01/02 01:02:57;;;;;;;19.08;7.82;;;10.60;99.90;;;;;;4992201;28;20065;-87
2022/01/02 01:05:31;;;;;;;19.05;7.68;;;11.30;99.90;;;;;;4976656;28;20061;-86
2022/01/02 01:08:00;;;;;;;19.15;7.20;;;10.90;99.90;;;;;;4982739;28;20045;-87
2022/01/02 01:10:29;;;;;;;16.90;7.60;;;11.00;99.90;;;;;;4985409;28;20056;-86
2022/01/02 01:13:00;;;;;;;20.08;8.25;;;11.10;99.90;;;;;;4983889;28;20042;-86
2022/01/02 01:15:29;;;;;;;17.90;7.80;;;11.00;99.90;;;;;;4977794;28;20053;-85
2022/01/02 01:17:57;;;;;;;19.95;8.15;;;10.60;99.90;;;;;;4990303;28;20108;-87
2022/01/02 01:20:26;;;;;;;14.43;7.35;;;12.10;99.90;;;;;;4975023;28;20056;-85
2022/01/02 01:22:52;;;;;;;13.20;7.20;;;11.20;99.90;;;;;;4974963;28;20145;-86
2022/01/02 01:25:20;;;;;;;21.45;8.00;;;12.10;99.90;;;;;;4974361;28;20046;-87
2022/01/02 01:27:50;;;;;;;20.40;7.47;;;10.70;99.90;;;;;;4990644;28;20058;-86
2022/01/02 01:30:18;;;;;;;17.98;6.05;;;11.00;99.90;;;;;;4974799;28;20092;-87
2022/01/02 01:32:46;;;;;;;20.38;7.72;;;11.00;99.90;;;;;;5007357;28;20050;-87
2022/01/02 01:35:13;;;;;;;15.07;6.00;;;11.00;99.90;;;;;;4974679;28;20076;-86
2022/01/02 01:37:40;;;;;;;16.30;7.55;;;10.90;99.90;;;;;;4990845;28;20058;-86
2022/01/02 01:40:09;;;;;;;19.58;7.28;;;12.00;99.90;;;;;;4974759;28;20069;-87
2022/01/02 01:42:41;;;;;;;16.52;7.30;;;11.00;99.90;;;;;;4974868;28;20053;-87
2022/01/02 01:47:52;;;;;;;20.80;8.95;;;11.00;99.90;;;;;;4990891;28;20135;-87
2022/01/02 01:50:20;;;;;;;22.10;9.32;;;11.70;99.90;;;;;;4974886;28;20477;-87
2022/01/02 01:52:46;;;;;;;18.10;9.38;;;11.90;99.90;;;;;;4973897;28;20046;-87
2022/01/02 01:55:13;;;;;;;18.10;7.97;;;12.10;99.90;;;;;;4974313;28;20050;-87
2022/01/02 01:57:39;;;;;;;21.92;9.63;;;11.40;99.90;;;;;;4974013;28;20045;-88
2022/01/02 02:00:09;;;;;;;24.25;8.63;;;11.50;99.90;;;;;;4974037;28;20057;-88
2022/01/02 02:02:35;;;;;;;18.50;8.35;;;11.00;99.90;;;;;;4974094;28;20064;-87
2022/01/02 02:05:01;;;;;;;22.15;8.95;;;10.00;99.90;;;;;;4992082;28;20074;-87
2022/01/02 02:07:37;;;;;;;25.23;9.10;;;11.70;99.90;;;;;;4977737;28;20061;-88
2022/01/02 02:10:12;;;;;;;23.40;10.10;;;12.20;99.90;;;;;;4977686;28;20041;-88
2022/01/02 02:12:40;;;;;;;20.80;8.57;;;11.00;99.90;;;;;;4977739;28;20050;-87
2022/01/02 02:15:07;;;;;;;21.73;9.55;;;11.30;99.90;;;;;;4977417;28;20135;-87
2022/01/02 02:17:34;;;;;;;25.73;10.00;;;11.00;99.90;;;;;;4977891;28;20084;-88
2022/01/02 02:20:31;;;;;;;29.52;9.98;;;10.90;99.90;;;;;;4993364;28;20133;-87
2022/01/02 02:22:58;;;;;;;23.95;9.63;;;10.70;99.90;;;;;;4977391;28;20104;-86
2022/01/02 02:25:31;;;;;;;20.65;9.98;;;11.60;99.90;;;;;;4977545;28;20054;-88
2022/01/02 02:28:01;;;;;;;21.17;9.25;;;12.10;99.90;;;;;;4977133;28;20060;-88
2022/01/02 02:30:29;;;;;;;20.38;9.02;;;10.70;99.90;;;;;;4977214;28;20076;-87
2022/01/02 02:32:57;;;;;;;18.08;9.32;;;10.60;99.90;;;;;;4993355;28;20045;-86
2022/01/02 02:35:24;;;;;;;23.75;10.15;;;10.60;99.90;;;;;;4977150;28;20050;-87
2022/01/02 02:37:50;;;;;;;29.35;10.10;;;11.30;99.90;;;;;;4977035;28;20061;-89
2022/01/02 02:40:19;;;;;;;18.23;9.73;;;10.50;99.90;;;;;;4977010;28;20404;-88
2022/01/02 02:42:53;;;;;;;23.13;10.07;;;10.90;99.90;;;;;;4993239;28;20050;-87
2022/01/02 02:51:10;;;;;;;22.42;10.35;;;10.90;99.90;;;;;;4993413;28;20053;-86
2022/01/02 02:53:39;;;;;;;23.30;10.25;;;11.50;99.90;;;;;;4976905;28;20427;-88
2022/01/02 02:59:11;;;;;;;28.63;10.85;;;11.60;99.90;;;;;;4895391;29;20056;-87
2022/01/02 03:01:37;;;;;;;22.88;9.93;;;11.10;99.90;;;;;;4895735;29;20056;-88
2022/01/02 03:04:03;;;;;;;27.50;11.18;;;11.90;99.90;;;;;;4935562;28;20054;-88
2022/01/02 03:06:30;;;;;;;25.80;11.18;;;10.90;99.90;;;;;;4976767;28;20084;-88
2022/01/02 03:09:03;;;;;;;33.45;10.98;;;11.00;99.90;;;;;;4992890;28;20049;-88
2022/01/02 03:11:30;;;;;;;27.88;10.93;;;11.70;99.90;;;;;;5009376;28;20081;-88
2022/01/02 03:13:55;;;;;;;29.23;11.48;;;10.90;99.90;;;;;;4976671;28;20053;-88
2022/01/02 03:16:22;;;;;;;23.20;10.82;;;10.90;99.90;;;;;;4976010;28;20124;-87
2022/01/02 03:18:48;;;;;;;28.83;10.20;;;11.50;99.90;;;;;;4976282;28;20053;-88
2022/01/02 03:21:13;;;;;;;28.75;10.90;;;11.40;99.90;;;;;;4976836;28;20100;-87
2022/01/02 03:23:40;;;;;;;39.92;13.27;;;10.80;99.90;;;;;;4977866;28;20104;-87
2022/01/02 03:26:06;;;;;;;33.53;12.57;;;10.90;99.90;;;;;;4993576;28;20064;-87
2022/01/02 03:28:32;;;;;;;25.92;11.18;;;10.70;99.90;;;;;;4977309;28;20057;-88
2022/01/02 03:30:58;;;;;;;37.38;12.98;;;11.10;99.90;;;;;;4977060;28;20049;-87
2022/01/02 03:33:23;;;;;;;27.35;10.95;;;11.00;99.90;;;;;;4976690;28;20056;-87
2022/01/02 03:35:49;;;;;;;27.23;11.10;;;11.70;99.90;;;;;;4976118;28;20591;-87
2022/01/02 03:38:16;;;;;;;34.58;11.30;;;11.00;99.90;;;;;;4992497;28;20057;-87
2022/01/02 03:40:42;;;;;;;29.35;12.70;;;10.90;99.90;;;;;;4976400;28;20045;-86
2022/01/02 03:43:08;;;;;;;31.25;12.00;;;10.90;99.90;;;;;;4976192;28;20046;-88
2022/01/02 03:45:33;;;;;;;29.08;12.35;;;10.90;99.90;;;;;;4976119;28;20050;-86
2022/01/02 03:47:59;;;;;;;34.00;12.18;;;11.40;99.90;;;;;;4976006;28;20488;-87
2022/01/02 03:50:25;;;;;;;28.08;12.82;;;10.60;99.90;;;;;;4975731;28;20119;-88
2022/01/02 03:52:51;;;;;;;31.42;12.25;;;11.30;99.90;;;;;;4976024;28;20046;-87
2022/01/02 03:55:17;;;;;;;30.67;11.73;;;10.90;99.90;;;;;;4992164;28;20132;-86
2022/01/02 03:57:43;;;;;;;27.35;13.45;;;10.60;99.90;;;;;;4975433;28;20135;-87
2022/01/02 04:00:11;;;;;;;33.03;12.25;;;10.90;99.90;;;;;;4975729;28;20045;-88
2022/01/02 04:02:38;;;;;;;21.63;10.98;;;10.90;99.90;;;;;;4975391;28;20101;-87
2022/01/02 04:05:09;;;;;;;29.13;11.45;;;10.90;99.90;;;;;;4975722;28;20065;-87
2022/01/02 04:07:35;;;;;;;29.52;10.73;;;11.00;99.90;;;;;;4994460;28;20053;-88
2022/01/02 04:10:05;;;;;;;25.85;10.18;;;11.40;99.90;;;;;;4993442;28;20106;-86
2022/01/02 04:12:31;;;;;;;32.22;11.35;;;11.10;99.90;;;;;;4975818;28;20057;-88
2022/01/02 04:14:56;;;;;;;22.13;8.75;;;11.70;99.90;;;;;;4991909;28;20496;-87
2022/01/02 04:17:23;;;;;;;35.33;9.35;;;12.30;99.90;;;;;;4975911;28;20061;-88
2022/01/02 04:19:50;;;;;;;21.30;9.48;;;11.80;99.90;;;;;;4975873;28;20136;-87
2022/01/02 04:22:17;;;;;;;35.72;10.32;;;12.00;99.90;;;;;;4975506;28;20053;-87
2022/01/02 04:24:43;;;;;;;28.17;9.63;;;11.20;99.90;;;;;;4991981;28;20093;-87
2022/01/02 04:27:08;;;;;;;26.50;11.02;;;10.80;99.90;;;;;;4974852;28;20081;-88
2022/01/02 04:29:34;;;;;;;21.27;9.13;;;11.10;99.90;;;;;;4975596;28;20049;-87
2022/01/02 04:32:00;;;;;;;24.45;9.00;;;10.80;99.90;;;;;;4975691;28;20054;-88
2022/01/02 04:34:26;;;;;;;31.52;8.98;;;11.20;99.90;;;;;;4975534;28;20754;-88
2022/01/02 04:36:51;;;;;;;27.52;9.05;;;11.00;99.90;;;;;;4979045;28;20073;-89
2022/01/02 04:39:17;;;;;;;31.00;11.88;;;10.80;99.90;;;;;;5002474;28;20038;-90
2022/01/02 04:41:43;;;;;;;26.55;9.32;;;11.80;99.90;;;;;;4985475;28;20085;-88
2022/01/02 04:44:09;;;;;;;28.70;9.98;;;11.60;99.90;;;;;;4993605;28;20049;-87
2022/01/02 04:46:35;;;;;;;27.25;10.63;;;11.10;99.90;;;;;;4991771;28;20423;-87
2022/01/02 04:49:01;;;;;;;37.88;9.88;;;11.80;99.90;;;;;;4959622;28;20092;-89
2022/01/02 04:51:26;;;;;;;28.95;9.57;;;10.80;99.90;;;;;;4975554;28;20460;-87
2022/01/02 04:53:52;;;;;;;24.45;9.32;;;10.90;99.90;;;;;;4975059;28;20054;-87
2022/01/02 04:56:18;;;;;;;39.10;10.60;;;10.50;99.90;;;;;;4975192;28;20130;-87
2022/01/02 04:58:44;;;;;;;27.48;9.35;;;11.30;99.90;;;;;;4991235;28;20512;-87
2022/01/02 05:01:14;;;;;;;30.80;9.13;;;12.00;99.90;;;;;;4974940;28;20483;-87
2022/01/02 05:03:40;;;;;;;23.42;9.18;;;11.90;99.90;;;;;;4974370;28;20062;-86
2022/01/02 05:06:08;;;;;;;24.50;8.82;;;11.60;99.90;;;;;;4974669;28;20175;-87
2022/01/02 05:08:34;;;;;;;17.75;8.07;;;11.80;99.90;;;;;;4974921;28;20054;-87
2022/01/02 05:11:00;;;;;;;36.67;9.68;;;10.90;99.90;;;;;;4990891;28;20085;-88
2022/01/02 05:13:25;;;;;;;22.33;9.32;;;12.30;99.90;;;;;;4974357;28;20096;-88
2022/01/02 05:15:51;;;;;;;23.17;8.65;;;11.20;99.90;;;;;;4974312;28;20571;-85
2022/01/02 05:18:17;;;;;;;19.17;8.07;;;10.30;99.90;;;;;;4974367;28;20046;-85
2022/01/02 05:20:46;;;;;;;28.48;7.97;;;11.80;99.90;;;;;;4974168;28;20512;-86
2022/01/02 05:23:12;;;;;;;22.77;8.20;;;11.50;99.90;;;;;;4974175;28;20508;-85
2022/01/02 05:25:38;;;;;;;25.50;7.53;;;10.70;99.90;;;;;;4990702;28;20084;-86
2022/01/02 05:28:04;;;;;;;22.58;6.95;;;11.20;99.90;;;;;;4974318;28;20902;-86
2022/01/02 05:30:30;;;;;;;28.73;8.32;;;11.10;99.90;;;;;;4990453;28;20137;-85
2022/01/02 05:32:56;;;;;;;22.77;7.97;;;11.30;99.90;;;;;;4974046;28;20053;-85
2022/01/02 05:35:22;;;;;;;25.77;7.57;;;11.20;99.90;;;;;;4974181;28;20046;-86
2022/01/02 05:37:50;;;;;;;22.15;7.97;;;11.20;99.90;;;;;;4974615;28;20049;-85
2022/01/02 05:40:16;;;;;;;25.80;7.28;;;12.20;99.90;;;;;;4994384;28;20057;-85
2022/01/02 05:42:42;;;;;;;20.63;8.50;;;11.30;99.90;;;;;;4977850;28;20460;-86
2022/01/02 05:45:08;;;;;;;27.75;7.22;;;10.60;99.90;;;;;;4978076;28;20053;-85
2022/01/02 05:47:33;;;;;;;24.83;6.80;;;11.30;99.90;;;;;;4977941;28;20049;-85
2022/01/02 05:49:59;;;;;;;17.42;6.88;;;11.30;99.90;;;;;;4994492;28;20053;-84
2022/01/02 05:52:25;;;;;;;22.65;6.57;;;11.80;99.90;;;;;;4978130;28;20096;-85
2022/01/02 05:54:51;;;;;;;19.50;6.65;;;11.40;99.90;;;;;;4977687;28;20050;-86
2022/01/02 05:57:16;;;;;;;26.00;7.32;;;12.10;99.90;;;;;;5010303;28;20493;-85
2022/01/02 05:59:42;;;;;;;19.70;7.60;;;10.80;99.90;;;;;;4978080;28;20085;-85
2022/01/02 06:02:08;;;;;;;22.38;5.78;;;11.00;99.90;;;;;;4994057;28;20077;-86
2022/01/02 06:04:33;;;;;;;21.45;6.95;;;11.90;99.90;;;;;;4995032;28;20065;-86
2022/01/02 06:07:00;;;;;;;22.48;7.05;;;11.00;99.90;;;;;;4978379;28;20133;-85
2022/01/02 06:09:26;;;;;;;15.82;6.93;;;11.40;99.90;;;;;;4994798;28;20077;-88
2022/01/02 06:11:52;;;;;;;25.30;6.78;;;11.60;99.90;;;;;;5010631;28;20089;-88
2022/01/02 06:14:17;;;;;;;26.77;6.55;;;11.10;99.90;;;;;;5010717;28;20046;-88
2022/01/02 06:16:43;;;;;;;28.95;8.40;;;11.10;99.90;;;;;;5011741;28;20054;-88
2022/01/02 06:19:09;;;;;;;21.83;7.18;;;11.60;99.90;;;;;;4977784;28;20829;-88
2022/01/02 06:21:34;;;;;;;23.05;8.30;;;12.10;99.90;;;;;;4977889;28;20136;-88
2022/01/02 06:24:00;;;;;;;24.35;6.97;;;12.20;99.90;;;;;;4994111;28;20068;-88
2022/01/02 06:26:26;;;;;;;24.08;7.90;;;12.20;99.90;;;;;;4994082;28;20046;-88
2022/01/02 06:28:51;;;;;;;21.10;5.90;;;11.60;99.90;;;;;;4977736;28;20451;-90
2022/01/02 06:31:17;;;;;;;22.30;7.15;;;11.50;99.90;;;;;;4977350;28;20124;-85
2022/01/02 06:33:43;;;;;;;11.98;5.90;;;12.00;99.90;;;;;;4977465;28;20625;-86
2022/01/02 06:36:08;;;;;;;13.65;5.70;;;11.50;99.90;;;;;;4977583;28;20064;-86
2022/01/02 06:38:34;;;;;;;20.42;5.75;;;11.50;99.90;;;;;;4977373;28;20151;-85
2022/01/02 06:41:00;;;;;;;24.05;6.47;;;12.40;99.90;;;;;;4977161;28;20057;-86
2022/01/02 06:43:26;;;;;;;15.73;6.30;;;12.10;99.90;;;;;;4977100;28;20096;-86
2022/01/02 06:45:52;;;;;;;20.67;7.63;;;11.60;99.90;;;;;;4993454;28;20140;-86
2022/01/02 06:48:17;;;;;;;21.95;4.68;;;11.30;99.90;;;;;;4977753;28;20100;-86
2022/01/02 06:50:43;;;;;;;22.38;4.63;;;12.00;99.90;;;;;;4993057;28;20441;-86
2022/01/02 06:53:09;;;;;;;19.45;5.80;;;11.50;99.90;;;;;;4978063;28;20116;-85
2022/01/02 06:55:35;;;;;;;19.48;5.75;;;12.60;99.90;;;;;;4994897;28;20073;-85
2022/01/02 06:58:03;;;;;;;20.85;5.20;;;11.30;99.90;;;;;;4978496;28;20053;-85
2022/01/02 07:00:29;;;;;;;17.25;4.60;;;13.00;99.90;;;;;;4988018;28;20049;-87
2022/01/02 07:02:55;;;;;;;16.55;3.65;;;11.30;99.90;;;;;;5031586;28;20077;-86
2022/01/02 07:05:20;;;;;;;14.43;4.00;;;11.70;99.90;;;;;;5014687;28;20050;-86
2022/01/02 07:07:47;;;;;;;17.27;4.30;;;13.00;99.90;;;;;;4990937;28;20054;-85
2022/01/02 07:10:14;;;;;;;18.08;4.15;;;12.60;99.90;;;;;;4992967;28;20056;-85
2022/01/02 07:12:41;;;;;;;14.05;4.13;;;12.20;99.90;;;;;;4977118;28;20518;-85
2022/01/02 07:15:08;;;;;;;21.48;4.38;;;12.00;99.90;;;;;;4976871;28;20128;-85
2022/01/02 07:17:34;;;;;;;8.02;3.05;;;11.70;99.90;;;;;;4977087;28;20064;-86
2022/01/02 07:20:00;;;;;;;12.68;3.53;;;12.80;99.90;;;;;;4976671;28;20034;-85
2022/01/02 07:22:26;;;;;;;10.77;3.17;;;11.60;99.90;;;;;;4977073;28;20046;-86
2022/01/02 07:24:52;;;;;;;13.60;3.53;;;12.20;99.90;;;;;;4992435;28;20851;-86
2022/01/02 07:27:19;;;;;;;12.52;4.15;;;12.00;99.90;;;;;;4976347;28;20109;-87
2022/01/02 07:29:49;;;;;;;11.60;3.30;;;12.50;99.90;;;;;;4976125;28;20081;-86
2022/01/02 07:32:15;;;;;;;10.23;4.13;;;11.80;99.90;;;;;;4976411;28;20096;-86
2022/01/02 07:34:42;;;;;;;16.20;3.85;;;11.90;99.90;;;;;;4976219;28;20079;-86
2022/01/02 07:37:08;;;;;;;14.50;4.47;;;11.80;99.90;;;;;;4992483;28;20096;-86
2022/01/02 07:39:34;;;;;;;9.32;4.30;;;11.80;99.90;;;;;;4992628;28;20104;-86
2022/01/02 07:42:00;;;;;;;13.25;4.10;;;11.30;99.90;;;;;;4975799;28;20050;-86
2022/01/02 07:44:26;;;;;;;9.63;3.20;;;12.10;99.90;;;;;;4992191;28;20096;-86
2022/01/02 07:46:52;;;;;;;11.68;4.10;;;12.00;99.90;;;;;;5006638;28;20045;-85
2022/01/02 07:49:17;;;;;;;11.52;4.00;;;12.70;99.90;;;;;;4995176;28;20786;-86
2022/01/02 07:51:56;;;;;;;11.15;3.28;;;11.30;99.90;;;;;;5029567;28;20102;-86
2022/01/02 07:54:22;;;;;;;19.80;5.05;;;12.50;99.90;;;;;;4995373;28;20037;-86
2022/01/02 07:56:48;;;;;;;15.98;4.32;;;12.10;99.90;;;;;;4995740;28;20103;-86
2022/01/02 07:59:14;;;;;;;13.50;3.95;;;11.80;99.90;;;;;;4995029;28;20411;-88
2022/01/02 08:01:40;;;;;;;15.32;3.58;;;12.00;99.90;;;;;;4994055;28;20089;-86
2022/01/02 08:04:05;;;;;;;18.92;4.38;;;12.50;99.90;;;;;;4991758;28;20049;-86
2022/01/02 08:06:31;;;;;;;12.20;3.63;;;12.40;99.90;;;;;;4975910;28;20088;-86
2022/01/02 08:08:57;;;;;;;11.65;4.03;;;11.60;99.90;;;;;;4975505;28;20069;-86
2022/01/02 08:11:22;;;;;;;16.73;3.97;;;11.00;99.90;;;;;;4975760;28;20078;-87
2022/01/02 08:13:51;;;;;;;14.10;4.28;;;11.40;99.90;;;;;;4975647;28;20046;-86
2022/01/02 08:16:17;;;;;;;11.98;4.43;;;11.40;99.90;;;;;;4976028;28;20112;-87
2022/01/02 08:18:43;;;;;;;9.05;3.72;;;11.90;99.90;;;;;;4975512;28;20081;-87
2022/01/02 08:21:09;;;;;;;19.38;4.38;;;11.40;99.90;;;;;;4975065;28;20149;-86
2022/01/02 08:23:35;;;;;;;15.15;4.47;;;11.40;99.90;;;;;;4975554;28;20050;-87
2022/01/02 08:26:02;;;;;;;14.02;4.43;;;11.80;99.90;;;;;;4975504;28;20060;-87
2022/01/02 08:28:28;;;;;;;12.68;4.80;;;11.30;99.90;;;;;;4991385;28;20057;-87
2022/01/02 08:30:54;;;;;;;16.00;5.72;;;11.90;99.90;;;;;;4975118;28;20060;-88
2022/01/02 08:33:19;;;;;;;12.98;4.47;;;11.80;99.90;;;;;;4991257;28;20563;-88
2022/01/02 08:35:46;;;;;;;13.75;4.97;;;11.30;99.90;;;;;;4991382;28;20476;-88
2022/01/02 08:38:12;;;;;;;14.32;4.82;;;12.10;99.90;;;;;;4975164;28;20053;-87
2022/01/02 08:40:39;;;;;;;14.77;4.80;;;10.70;99.90;;;;;;4975039;28;20070;-89
2022/01/02 08:43:08;;;;;;;12.00;4.45;;;11.80;99.90;;;;;;4974837;28;20572;-88
2022/01/02 08:45:37;;;;;;;17.23;5.15;;;11.90;99.90;;;;;;4974981;28;20046;-89
2022/01/02 08:48:04;;;;;;;7.45;3.80;;;10.90;99.90;;;;;;4991213;28;20049;-88
2022/01/02 08:50:30;;;;;;;14.13;3.75;;;11.80;99.90;;;;;;4991127;28;20049;-88
2022/01/02 08:53:11;;;;;;;13.38;5.05;;;11.20;99.90;;;;;;4974897;28;20050;-88
2022/01/02 08:55:37;;;;;;;20.10;5.22;;;10.80;99.90;;;;;;4991096;28;20050;-88
2022/01/02 08:58:03;;;;;;;12.80;4.55;;;11.20;99.90;;;;;;4974159;28;20053;-88
2022/01/02 09:00:32;;;;;;;11.30;4.80;;;11.90;99.90;;;;;;4974446;28;20056;-88
2022/01/02 09:02:57;;;;;;;15.45;5.40;;;11.10;99.90;;;;;;4986344;28;20117;-88
2022/01/02 09:05:25;;;;;;;18.42;6.30;;;12.20;99.90;;;;;;5010820;28;20141;-88
2022/01/02 09:07:51;;;;;;;20.42;6.15;;;11.20;99.90;;;;;;5028485;28;20064;-88
2022/01/02 09:10:18;;;;;;;10.10;5.53;;;10.80;99.90;;;;;;4994245;28;20056;-88
2022/01/02 09:12:44;;;;;;;14.38;5.22;;;11.80;99.90;;;;;;4993650;28;20053;-88
2022/01/02 09:15:11;;;;;;;16.40;4.60;;;11.30;99.90;;;;;;4994497;28;20492;-87
2022/01/02 09:17:41;;;;;;;13.50;5.70;;;11.10;99.90;;;;;;4994721;28;20062;-88
2022/01/02 09:20:09;;;;;;;18.42;6.43;;;12.10;99.90;;;;;;4995950;28;20049;-88
2022/01/02 09:22:46;;;;;;;13.68;5.80;;;11.10;99.90;;;;;;4996165;28;20060;-89
2022/01/02 09:25:12;;;;;;;14.52;5.68;;;11.40;99.90;;;;;;5012309;28;20045;-88
2022/01/02 09:27:39;;;;;;;17.67;6.40;;;11.60;99.90;;;;;;4995271;28;20045;-88
2022/01/02 09:30:06;;;;;;;18.08;6.15;;;11.70;99.90;;;;;;4994482;28;20068;-88
2022/01/02 09:32:34;;;;;;;13.35;5.78;;;11.20;99.90;;;;;;5010839;28;20061;-89
2022/01/02 09:35:01;;;;;;;14.32;5.35;;;11.20;99.90;;;;;;4994007;28;20415;-88
2022/01/02 09:37:27;;;;;;;9.20;5.15;;;11.10;99.90;;;;;;4994408;28;20063;-89
2022/01/02 09:39:53;;;;;;;19.73;6.03;;;10.90;99.90;;;;;;4993140;28;20500;-87
2022/01/02 09:42:19;;;;;;;10.73;5.43;;;11.20;99.90;;;;;;4992746;28;20530;-87
2022/01/02 09:44:45;;;;;;;17.85;5.53;;;11.10;99.90;;;;;;4992840;28;20056;-88
2022/01/02 09:47:12;;;;;;;15.55;5.78;;;11.50;99.90;;;;;;4992886;28;20053;-87
2022/01/02 09:49:39;;;;;;;10.68;5.20;;;11.20;99.90;;;;;;4993642;28;20505;-88
2022/01/02 09:52:06;;;;;;;8.85;4.53;;;11.70;99.90;;;;;;4993793;28;20060;-88
2022/01/02 09:54:33;;;;;;;13.15;4.53;;;11.90;99.90;;;;;;4993419;28;20037;-89
2022/01/02 09:57:01;;;;;;;14.57;5.18;;;11.90;99.90;;;;;;4993506;28;20495;-88
2022/01/02 09:59:26;;;;;;;11.70;4.65;;;11.30;99.90;;;;;;4993579;28;20753;-88
2022/01/02 10:01:53;;;;;;;10.10;5.03;;;11.20;99.90;;;;;;5006698;28;20077;-88
2022/01/02 10:04:40;;;;;;;12.85;4.78;;;11.90;99.90;;;;;;4973750;28;20045;-89
2022/01/02 10:07:33;;;;;;;10.02;4.32;;;11.30;99.90;;;;;;4973542;28;20389;-88
2022/01/02 10:10:09;;;;;;;16.75;4.90;;;11.40;99.90;;;;;;4973983;28;20101;-89
2022/01/02 10:12:36;;;;;;;11.10;4.30;;;10.60;99.90;;;;;;4973632;28;20108;-88
2022/01/02 10:15:23;;;;;;;9.57;5.72;;;11.40;99.90;;;;;;4973739;28;20046;-88
2022/01/02 10:17:56;;;;;;;14.95;5.72;;;12.40;99.90;;;;;;4974147;28;20323;-88
2022/01/02 10:20:28;;;;;;;15.90;5.55;;;11.50;99.90;;;;;;4974284;28;20054;-88
2022/01/02 10:23:14;;;;;;;11.43;4.45;;;11.50;99.90;;;;;;4974370;28;20075;-88
2022/01/02 10:25:45;;;;;;;9.20;4.45;;;11.50;99.90;;;;;;4976658;28;20144;-88
2022/01/02 10:28:29;;;;;;;13.50;4.55;;;11.50;99.90;;;;;;4977542;28;20595;-88
2022/01/02 10:31:04;;;;;;;13.40;4.47;;;11.10;99.90;;;;;;4978016;28;20045;-88
2022/01/02 10:33:50;;;;;;;10.40;5.63;;;11.20;99.90;;;;;;4976929;28;20041;-89
2022/01/02 10:36:25;;;;;;;15.32;6.25;;;11.40;99.90;;;;;;4954470;28;20046;-88
2022/01/02 10:39:02;;;;;;;11.27;5.97;;;11.60;99.90;;;;;;4954424;28;20401;-88
2022/01/02 10:41:49;;;;;;;15.82;6.25;;;11.50;99.90;;;;;;4954274;28;20286;-87
2022/01/02 10:44:29;;;;;;;17.40;6.20;;;11.90;99.90;;;;;;4938273;28;20066;-87
2022/01/02 10:47:08;;;;;;;17.70;5.95;;;12.00;99.90;;;;;;4954185;28;20613;-88
2022/01/02 10:50:11;;;;;;;11.82;6.32;;;11.40;99.90;;;;;;4954372;28;20150;-89
2022/01/02 10:52:45;;;;;;;12.15;5.80;;;12.60;99.90;;;;;;4898224;29;20494;-88
2022/01/02 10:55:26;;;;;;;16.50;5.68;;;11.40;99.90;;;;;;4933244;28;20493;-89
2022/01/02 10:57:54;;;;;;;14.05;6.53;;;11.40;99.90;;;;;;4953482;28;20090;-87
2022/01/02 11:00:25;;;;;;;12.65;5.50;;;11.50;99.90;;;;;;4953248;28;20054;-88
2022/01/02 11:02:51;;;;;;;17.88;6.93;;;11.80;99.90;;;;;;4947273;28;20050;-87
2022/01/02 11:05:19;;;;;;;15.95;4.90;;;11.10;99.90;;;;;;4957156;28;20054;-88
2022/01/02 11:07:50;;;;;;;18.45;5.63;;;10.70;99.90;;;;;;4957180;28;20046;-88
2022/01/02 11:10:18;;;;;;;16.52;4.75;;;11.20;99.90;;;;;;4978091;28;20046;-87
2022/01/02 11:12:48;;;;;;;12.63;5.38;;;12.60;99.90;;;;;;4968362;28;20144;-88
2022/01/02 11:15:22;;;;;;;15.30;4.80;;;11.60;99.90;;;;;;4967309;28;20133;-88
2022/01/02 11:17:51;;;;;;;12.35;5.15;;;11.50;99.90;;;;;;4959796;28;20050;-88
2022/01/02 11:20:25;;;;;;;7.95;4.28;;;11.80;99.90;;;;;;4974050;28;20054;-87
2022/01/02 11:23:20;;;;;;;11.93;4.35;;;11.30;99.90;;;;;;4957940;28;20519;-88
2022/01/02 11:26:21;;;;;;;12.20;5.07;;;11.60;99.90;;;;;;4974126;28;20046;-87
2022/01/02 11:28:50;;;;;;;10.65;3.88;;;11.70;99.90;;;;;;4917009;28;20058;-87
2022/01/02 11:31:38;;;;;;;10.95;4.40;;;12.40;99.90;;;;;;4973170;28;20065;-88
2022/01/02 11:34:23;;;;;;;8.68;3.80;;;11.50;99.90;;;;;;4956136;28;20056;-88
2022/01/02 11:36:50;;;;;;;11.30;5.22;;;11.70;99.90;;;;;;4956363;28;20133;-90
2022/01/02 11:39:16;;;;;;;14.10;5.05;;;12.30;99.90;;;;;;4957051;28;20485;-88
2022/01/02 11:41:53;;;;;;;11.23;4.63;;;12.50;99.90;;;;;;4972934;28;20464;-88
2022/01/02 11:44:23;;;;;;;12.07;5.65;;;12.00;99.90;;;;;;4956543;28;20408;-89
2022/01/02 11:46:49;;;;;;;6.40;3.80;;;12.60;99.90;;;;;;4953157;28;20179;-87
2022/01/02 11:49:20;;;;;;;14.07;4.43;;;12.30;99.90;;;;;;4955617;28;20054;-87
2022/01/02 11:52:04;;;;;;;13.63;4.53;;;12.00;99.90;;;;;;4956174;28;20050;-88
2022/01/02 11:54:35;;;;;;;11.65;3.65;;;11.50;99.90;;;;;;4971697;28;20042;-88
2022/01/02 11:57:00;;;;;;;10.30;4.00;;;12.90;99.90;;;;;;4955858;28;20085;-87
2022/01/02 11:59:38;;;;;;;14.30;4.18;;;11.70;99.90;;;;;;4955797;28;20089;-87
2022/01/02 12:02:13;;;;;;;11.45;3.50;;;11.70;99.90;;;;;;4951901;28;20619;-89
2022/01/02 12:04:59;;;;;;;15.88;3.70;;;12.20;99.90;;;;;;4952380;28;20497;-87
2022/01/02 12:07:53;;;;;;;15.70;3.85;;;12.40;99.90;;;;;;4949014;28;20114;-87
2022/01/02 12:10:23;;;;;;;8.13;3.03;;;11.60;99.90;;;;;;4948012;28;20545;-87
2022/01/02 12:13:10;;;;;;;9.90;3.30;;;12.30;99.90;;;;;;4952636;28;20042;-87
2022/01/02 12:15:39;;;;;;;14.55;3.17;;;11.70;99.90;;;;;;4952493;28;20082;-87
2022/01/02 12:18:06;;;;;;;17.42;3.67;;;12.00;99.90;;;;;;4952770;28;20117;-89
2022/01/02 12:20:52;;;;;;;13.82;3.38;;;12.90;99.90;;;;;;4937260;28;20117;-88
2022/01/02 12:23:44;;;;;;;9.45;2.50;;;12.30;99.90;;;;;;4948783;28;20059;-88
2022/01/02 12:26:21;;;;;;;7.65;2.63;;;11.50;99.90;;;;;;4951844;28;20927;-88
2022/01/02 12:29:02;;;;;;;10.25;3.20;;;12.80;99.90;;;;;;4937935;28;20047;-87
2022/01/02 12:31:40;;;;;;;14.38;4.10;;;11.10;99.90;;;;;;4958045;28;20394;-86
2022/01/02 12:34:17;;;;;;;11.88;3.63;;;11.50;99.90;;;;;;4940206;28;20058;-86
2022/01/02 12:36:51;;;;;;;16.92;4.05;;;11.70;99.90;;;;;;4974032;28;20046;-87
2022/01/02 12:39:31;;;;;;;12.02;3.70;;;11.70;99.90;;;;;;4965903;28;20206;-86
2022/01/02 12:42:10;;;;;;;21.13;3.85;;;13.00;99.90;;;;;;4976127;28;20031;-89
2022/01/02 12:44:36;;;;;;;20.40;3.78;;;11.90;99.90;;;;;;4976578;28;20077;-88
2022/01/02 12:47:06;;;;;;;17.48;4.07;;;12.40;99.90;;;;;;4964967;28;20078;-87
2022/01/02 12:49:58;;;;;;;14.40;3.60;;;11.80;99.90;;;;;;4953929;28;20085;-87
2022/01/02 12:52:25;;;;;;;18.42;3.17;;;11.80;99.90;;;;;;4953404;28;20398;-88
2022/01/02 12:54:51;;;;;;;15.95;3.67;;;12.10;99.90;;;;;;4936518;28;20601;-86
2022/01/02 12:57:18;;;;;;;13.73;3.85;;;11.70;99.90;;;;;;4936741;28;20133;-87